createdAt,value
2018-12-12T00:01:42.017Z,10.87
2018-12-12T00:04:11.371Z,11.07
2018-12-12T00:06:40.176Z,9.23
2018-12-12T00:09:09.613Z,9.87
2018-12-12T00:11:38.573Z,9.93
2018-12-12T00:14:07.531Z,7.23
2018-12-12T00:16:36.622Z,10.03
2018-12-12T00:19:05.629Z,7.90
2018-12-12T00:21:34.445Z,7.23
2018-12-12T00:24:03.334Z,7.23
2018-12-12T00:26:32.376Z,6.47
2018-12-12T00:29:01.412Z,6.83
2018-12-12T00:31:30.336Z,6.30
2018-12-12T00:33:59.214Z,4.93
2018-12-12T00:36:28.182Z,5.60
2018-12-12T00:38:57.142Z,5.93
2018-12-12T00:41:26.378Z,5.53
2018-12-12T00:43:55.262Z,5.57
2018-12-12T00:46:24.378Z,5.60
2018-12-12T00:48:53.356Z,5.83
2018-12-12T00:51:22.248Z,5.47
2018-12-12T00:53:51.169Z,5.17
2018-12-12T00:56:20.150Z,4.93
2018-12-12T00:58:49.278Z,5.30
2018-12-12T01:01:18.732Z,5.43
2018-12-12T01:03:47.721Z,5.93
2018-12-12T01:06:16.777Z,6.40
2018-12-12T01:08:45.737Z,7.17
2018-12-12T01:11:19.957Z,6.83
2018-12-12T01:13:48.822Z,8.73
2018-12-12T01:16:17.993Z,7.90
2018-12-12T01:18:46.784Z,8.13
2018-12-12T01:21:15.589Z,7.93
2018-12-12T01:23:44.489Z,8.53
2018-12-12T01:26:13.477Z,8.30
2018-12-12T01:28:42.602Z,7.97
2018-12-12T01:31:11.434Z,7.80
2018-12-12T01:33:40.362Z,8.47
2018-12-12T01:36:09.627Z,8.57
2018-12-12T01:38:38.553Z,6.50
2018-12-12T01:41:07.369Z,7.20
2018-12-12T01:43:36.422Z,7.50
2018-12-12T01:46:05.428Z,6.57
2018-12-12T01:48:34.322Z,4.80
2018-12-12T01:51:03.137Z,5.20
2018-12-12T01:53:33.111Z,5.77
2018-12-12T01:56:02.148Z,7.30
2018-12-12T01:58:31.179Z,8.57
2018-12-12T02:01:00.001Z,8.60
2018-12-12T02:03:28.833Z,9.23
2018-12-12T02:05:57.761Z,9.23
2018-12-12T02:08:26.920Z,8.50
2018-12-12T02:10:55.801Z,8.73
2018-12-12T02:13:34.791Z,8.50
2018-12-12T02:16:04.607Z,8.97
2018-12-12T02:18:35.465Z,7.87
2018-12-12T02:21:04.474Z,7.63
2018-12-12T02:23:33.365Z,7.13
2018-12-12T02:26:02.224Z,7.10
2018-12-12T02:28:31.359Z,7.83
2018-12-12T02:31:00.260Z,8.80
2018-12-12T02:33:29.286Z,7.93
2018-12-12T02:35:58.203Z,8.90
2018-12-12T02:38:27.109Z,8.77
2018-12-12T02:40:55.905Z,9.17
2018-12-12T02:43:25.117Z,10.03
2018-12-12T02:45:54.153Z,8.23
2018-12-12T02:48:23.354Z,8.17
2018-12-12T02:50:52.246Z,7.60
2018-12-12T02:53:21.502Z,6.10
2018-12-12T02:55:50.542Z,5.77
2018-12-12T02:58:19.534Z,5.47
2018-12-12T03:00:48.397Z,4.70
2018-12-12T03:03:18.141Z,4.50
2018-12-12T03:05:47.036Z,5.40
2018-12-12T03:08:15.841Z,5.43
2018-12-12T03:10:44.800Z,5.40
2018-12-12T03:13:13.598Z,5.10
2018-12-12T03:15:43.064Z,5.60
2018-12-12T03:18:11.942Z,6.13
2018-12-12T03:20:40.946Z,6.33
2018-12-12T03:23:10.064Z,5.73
2018-12-12T03:25:39.088Z,5.23
2018-12-12T03:28:07.869Z,5.63
2018-12-12T03:30:37.898Z,5.47
2018-12-12T03:33:06.778Z,5.07
2018-12-12T03:35:35.744Z,5.70
2018-12-12T03:38:04.754Z,5.50
2018-12-12T03:40:35.073Z,5.60
2018-12-12T03:43:04.054Z,5.63
2018-12-12T03:45:32.988Z,5.10
2018-12-12T03:48:01.795Z,5.87
2018-12-12T03:50:30.698Z,6.17
2018-12-12T03:52:59.565Z,6.57
2018-12-12T03:55:28.388Z,5.90
2018-12-12T03:57:57.490Z,6.07
2018-12-12T04:00:26.418Z,5.83
2018-12-12T04:02:55.394Z,5.20
2018-12-12T04:05:24.187Z,5.20
2018-12-12T04:07:53.128Z,5.40
2018-12-12T04:10:21.943Z,5.80
2018-12-12T04:12:50.914Z,6.00
2018-12-12T04:15:19.886Z,6.20
2018-12-12T04:17:48.755Z,6.07
2018-12-12T04:20:17.840Z,5.67
2018-12-12T04:22:46.938Z,6.20
2018-12-12T04:25:16.864Z,7.43
2018-12-12T04:27:45.930Z,7.03
2018-12-12T04:30:15.270Z,8.20
2018-12-12T04:32:44.204Z,8.40
2018-12-12T04:35:13.185Z,12.93
2018-12-12T04:37:42.302Z,7.27
2018-12-12T04:40:11.177Z,8.20
2018-12-12T04:42:40.259Z,7.97
2018-12-12T04:45:09.162Z,17.03
2018-12-12T04:47:37.977Z,8.73
2018-12-12T04:50:07.294Z,7.70
2018-12-12T04:52:36.236Z,8.33
2018-12-12T04:55:05.250Z,9.80
2018-12-12T04:57:34.247Z,8.83
2018-12-12T05:00:03.228Z,9.73
2018-12-12T05:02:32.207Z,8.50
2018-12-12T05:05:01.106Z,8.90
2018-12-12T05:07:30.518Z,9.33
2018-12-12T05:09:59.446Z,10.77
2018-12-12T05:12:28.370Z,10.37
2018-12-12T05:14:57.517Z,10.90
2018-12-12T05:17:26.418Z,10.07
2018-12-12T05:19:55.313Z,8.67
2018-12-12T05:22:24.329Z,9.70
2018-12-12T05:24:53.233Z,12.60
2018-12-12T05:27:22.160Z,12.33
2018-12-12T05:29:51.050Z,11.57
2018-12-12T05:32:19.984Z,9.77
2018-12-12T05:34:48.758Z,9.23
2018-12-12T05:37:17.585Z,10.13
2018-12-12T05:39:46.593Z,10.20
2018-12-12T05:42:15.600Z,10.30
2018-12-12T05:44:44.460Z,10.80
2018-12-12T05:50:12.007Z,11.30
2018-12-12T05:52:40.853Z,10.10
2018-12-12T05:55:09.753Z,12.07
2018-12-12T05:57:39.182Z,10.80
2018-12-12T06:00:09.014Z,10.10
2018-12-12T06:05:30.037Z,6.60
2018-12-12T06:07:58.911Z,8.33
2018-12-12T06:10:27.725Z,8.93
2018-12-12T06:12:57.929Z,7.43
2018-12-12T06:15:27.050Z,5.97
2018-12-12T06:17:55.989Z,7.80
2018-12-12T06:20:24.797Z,8.33
2018-12-12T06:22:53.610Z,8.57
2018-12-12T06:25:22.435Z,9.07
2018-12-12T06:27:51.249Z,8.00
2018-12-12T06:30:20.047Z,8.27
2018-12-12T06:32:48.921Z,8.57
2018-12-12T06:35:17.892Z,9.03
2018-12-12T06:37:46.708Z,8.10
2018-12-12T06:40:15.578Z,7.77
2018-12-12T06:42:44.390Z,8.30
2018-12-12T06:45:13.173Z,8.60
2018-12-12T06:47:41.961Z,7.37
2018-12-12T06:50:10.833Z,7.53
2018-12-12T06:52:39.673Z,8.57
2018-12-12T06:55:08.641Z,8.40
2018-12-12T06:57:37.492Z,8.03
2018-12-12T07:00:06.725Z,7.53
2018-12-12T07:02:35.556Z,7.43
2018-12-12T07:05:05.135Z,7.07
2018-12-12T07:07:34.223Z,8.73
2018-12-12T07:10:03.123Z,6.67
2018-12-12T07:12:31.934Z,6.40
2018-12-12T07:15:00.746Z,6.73
2018-12-12T07:17:29.581Z,6.40
2018-12-12T07:19:58.487Z,6.77
2018-12-12T07:22:27.317Z,6.53
2018-12-12T07:24:56.170Z,7.30
2018-12-12T07:27:24.993Z,8.03
2018-12-12T07:29:53.812Z,7.90
2018-12-12T07:32:25.982Z,7.83
2018-12-12T07:34:53.367Z,7.77
2018-12-12T07:37:22.245Z,8.60
2018-12-12T07:39:51.158Z,7.50
2018-12-12T07:42:20.087Z,8.53
2018-12-12T07:44:48.927Z,8.67
2018-12-12T07:47:17.741Z,8.13
2018-12-12T07:49:46.537Z,9.77
2018-12-12T07:52:15.365Z,11.47
2018-12-12T07:54:44.166Z,12.47
2018-12-12T07:57:12.998Z,13.73
2018-12-12T07:59:41.794Z,12.37
2018-12-12T08:02:10.817Z,13.73
2018-12-12T08:04:39.622Z,13.63
2018-12-12T08:07:08.506Z,12.93
2018-12-12T08:09:37.346Z,13.00
2018-12-12T08:12:06.283Z,12.23
2018-12-12T08:14:35.124Z,12.70
2018-12-12T08:17:04.389Z,24.70
2018-12-12T08:19:33.201Z,11.17
2018-12-12T08:22:02.004Z,9.70
2018-12-12T08:24:30.848Z,9.50
2018-12-12T08:26:59.664Z,10.80
2018-12-12T08:29:28.527Z,10.80
2018-12-12T08:31:57.371Z,11.83
2018-12-12T08:34:26.186Z,13.20
2018-12-12T08:36:55.030Z,11.50
2018-12-12T08:39:23.853Z,11.07
2018-12-12T08:41:52.653Z,9.07
2018-12-12T08:44:21.489Z,8.80
2018-12-12T08:46:50.294Z,7.20
2018-12-12T08:49:19.142Z,9.13
2018-12-12T08:51:47.994Z,9.80
2018-12-12T08:54:16.845Z,10.03
2018-12-12T08:56:45.645Z,10.17
2018-12-12T08:59:14.663Z,10.30
2018-12-12T09:01:43.687Z,11.37
2018-12-12T09:04:12.509Z,12.70
2018-12-12T09:06:41.402Z,12.50
2018-12-12T09:09:10.270Z,13.77
2018-12-12T09:11:39.077Z,16.23
2018-12-12T09:14:07.902Z,14.03
2018-12-12T09:16:36.719Z,22.90
2018-12-12T09:19:05.532Z,16.70
2018-12-12T09:21:35.752Z,17.33
2018-12-12T09:24:04.740Z,22.93
2018-12-12T09:26:33.562Z,19.77
2018-12-12T09:29:02.545Z,25.33
2018-12-12T09:31:31.418Z,20.23
2018-12-12T09:34:00.230Z,17.43
2018-12-12T09:36:29.093Z,18.33
2018-12-12T09:38:57.954Z,18.03
2018-12-12T09:41:26.752Z,29.57
2018-12-12T09:43:55.562Z,26.03
2018-12-12T09:46:24.436Z,20.93
2018-12-12T09:48:53.334Z,17.57
2018-12-12T09:51:22.134Z,16.33
2018-12-12T09:53:51.002Z,27.13
2018-12-12T09:56:19.797Z,20.13
2018-12-12T09:58:48.621Z,16.73
2018-12-12T10:01:17.683Z,17.33
2018-12-12T10:03:46.713Z,17.27
2018-12-12T10:06:15.497Z,17.83
2018-12-12T10:08:44.359Z,20.73
2018-12-12T10:11:13.250Z,20.50
2018-12-12T10:13:42.183Z,18.17
2018-12-12T10:16:10.978Z,20.87
2018-12-12T10:18:40.053Z,14.90
2018-12-12T10:21:08.840Z,14.13
2018-12-12T10:23:37.613Z,13.73
2018-12-12T10:26:06.530Z,18.10
2018-12-12T10:28:35.366Z,17.37
2018-12-12T10:31:04.236Z,28.33
2018-12-12T10:33:37.577Z,22.90
2018-12-12T10:36:04.095Z,19.93
2018-12-12T10:38:33.374Z,17.77
2018-12-12T10:41:02.287Z,17.33
2018-12-12T10:43:31.179Z,15.57
2018-12-12T10:45:59.989Z,18.10
2018-12-12T10:48:28.811Z,17.53
2018-12-12T10:50:57.642Z,17.60
2018-12-12T10:53:26.555Z,17.73
2018-12-12T10:55:55.364Z,18.90
2018-12-12T10:58:24.178Z,18.67
2018-12-12T11:00:58.346Z,19.60
2018-12-12T11:03:43.979Z,20.83
2018-12-12T11:06:08.344Z,20.17
2018-12-12T11:08:37.206Z,17.93
2018-12-12T11:11:06.182Z,17.90
2018-12-12T11:13:35.034Z,19.17
2018-12-12T11:16:05.197Z,19.37
2018-12-12T11:18:34.197Z,19.23
2018-12-12T11:21:03.125Z,20.53
2018-12-12T11:23:31.923Z,20.23
2018-12-12T11:26:00.811Z,21.13
2018-12-12T11:28:29.607Z,20.93
2018-12-12T11:30:58.451Z,20.97
2018-12-12T11:33:27.231Z,21.20
2018-12-12T11:35:56.043Z,22.83
2018-12-12T11:38:25.114Z,21.67
2018-12-12T11:40:53.983Z,22.93
2018-12-12T11:43:22.862Z,24.10
2018-12-12T11:45:51.710Z,26.03
2018-12-12T11:48:20.500Z,26.63
2018-12-12T11:50:49.317Z,25.73
2018-12-12T11:53:18.453Z,26.77
2018-12-12T11:55:47.355Z,27.97
2018-12-12T11:58:16.155Z,27.33
2018-12-12T12:00:45.102Z,30.27
2018-12-12T12:03:13.892Z,26.57
2018-12-12T12:05:42.876Z,27.03
2018-12-12T12:08:11.729Z,26.27
2018-12-12T12:10:40.553Z,21.40
2018-12-12T12:13:09.350Z,22.43
2018-12-12T12:15:38.177Z,23.93
2018-12-12T12:18:06.969Z,37.00
2018-12-12T12:20:35.774Z,25.77
2018-12-12T12:23:04.772Z,21.20
2018-12-12T12:25:33.689Z,22.50
2018-12-12T12:28:02.570Z,21.20
2018-12-12T12:30:31.567Z,23.23
2018-12-12T12:33:00.466Z,23.60
2018-12-12T12:35:29.510Z,26.50
2018-12-12T12:37:58.331Z,27.17
2018-12-12T12:40:27.196Z,26.53
2018-12-12T12:42:56.131Z,25.93
2018-12-12T12:45:25.006Z,23.67
2018-12-12T12:47:53.846Z,22.60
2018-12-12T12:50:22.669Z,22.53
2018-12-12T12:52:51.483Z,23.90
2018-12-12T12:55:20.302Z,19.90
2018-12-12T12:57:49.141Z,19.23
2018-12-12T13:00:17.966Z,17.63
2018-12-12T13:02:46.990Z,16.90
2018-12-12T13:05:15.834Z,16.83
2018-12-12T13:07:44.794Z,16.73
2018-12-12T13:10:13.683Z,17.13
2018-12-12T13:12:43.186Z,16.80
2018-12-12T13:15:12.507Z,16.63
2018-12-12T13:17:41.329Z,16.63
2018-12-12T13:20:10.183Z,15.97
2018-12-12T13:22:38.985Z,15.33
2018-12-12T13:25:07.970Z,15.27
2018-12-12T13:27:36.846Z,15.37
2018-12-12T13:30:05.859Z,15.07
2018-12-12T13:32:34.700Z,16.03
2018-12-12T13:35:03.872Z,15.50
2018-12-12T13:37:32.895Z,14.33
2018-12-12T13:40:01.746Z,15.80
2018-12-12T13:42:31.047Z,16.07
2018-12-12T13:44:59.907Z,16.93
2018-12-12T13:47:28.829Z,17.23
2018-12-12T13:49:57.641Z,16.63
2018-12-12T13:52:26.489Z,15.93
2018-12-12T13:54:55.378Z,15.23
2018-12-12T13:57:24.810Z,16.60
2018-12-12T13:59:53.716Z,16.03
2018-12-12T14:02:22.706Z,16.77
2018-12-12T14:04:51.587Z,16.33
2018-12-12T14:07:26.062Z,16.90
2018-12-12T14:10:00.363Z,17.17
2018-12-12T14:12:34.678Z,17.57
2018-12-12T14:15:09.094Z,17.43
2018-12-12T14:17:43.485Z,18.00
2018-12-12T14:20:17.799Z,18.43
2018-12-12T14:22:50.262Z,18.97
2018-12-12T14:25:19.076Z,19.70
2018-12-12T14:27:47.909Z,18.73
2018-12-12T14:30:16.833Z,19.07
2018-12-12T14:32:45.673Z,18.83
2018-12-12T14:35:14.602Z,19.97
2018-12-12T14:37:43.622Z,17.77
2018-12-12T14:40:12.500Z,15.53
2018-12-12T14:42:41.354Z,22.10
2018-12-12T14:45:10.337Z,17.93
2018-12-12T14:47:39.273Z,17.07
2018-12-12T14:50:08.271Z,15.90
2018-12-12T14:52:37.270Z,16.47
2018-12-12T14:55:06.274Z,16.57
2018-12-12T14:57:35.241Z,16.27
2018-12-12T15:00:04.975Z,16.17
2018-12-12T15:02:33.953Z,17.77
2018-12-12T15:05:02.845Z,19.47
2018-12-12T15:07:31.681Z,18.47
2018-12-12T15:10:00.539Z,18.37
2018-12-12T15:12:29.406Z,18.90
2018-12-12T15:14:58.317Z,19.67
2018-12-12T15:17:27.197Z,17.80
2018-12-12T15:19:56.004Z,18.47
2018-12-12T15:22:25.095Z,17.73
2018-12-12T15:24:53.898Z,17.83
2018-12-12T15:27:22.761Z,17.83
2018-12-12T15:29:51.679Z,16.57
2018-12-12T15:32:20.502Z,17.10
2018-12-12T15:34:49.417Z,16.80
2018-12-12T15:37:18.351Z,18.33
2018-12-12T15:39:47.160Z,17.77
2018-12-12T15:42:15.970Z,17.03
2018-12-12T15:44:44.782Z,16.57
2018-12-12T15:47:13.749Z,18.83
2018-12-12T15:49:43.814Z,20.50
2018-12-12T15:52:12.962Z,21.17
2018-12-12T15:54:41.850Z,20.27
2018-12-12T15:57:10.790Z,21.70
2018-12-12T15:59:39.590Z,22.67
2018-12-12T16:02:08.471Z,21.20
2018-12-12T16:04:37.469Z,21.37
2018-12-12T16:07:06.306Z,23.37
2018-12-12T16:09:35.119Z,24.00
2018-12-12T16:12:04.162Z,22.83
2018-12-12T16:14:32.954Z,23.00
2018-12-12T16:17:01.852Z,22.63
2018-12-12T16:19:30.687Z,21.57
2018-12-12T16:21:59.572Z,22.03
2018-12-12T16:24:28.361Z,21.70
2018-12-12T16:26:57.199Z,23.03
2018-12-12T16:29:26.073Z,22.03
2018-12-12T16:31:54.898Z,22.80
2018-12-12T16:34:23.700Z,21.97
2018-12-12T16:36:52.506Z,21.07
2018-12-12T16:39:21.359Z,22.17
2018-12-12T16:41:50.170Z,21.83
2018-12-12T16:44:18.970Z,22.27
2018-12-12T16:46:47.851Z,21.63
2018-12-12T16:49:16.750Z,20.73
2018-12-12T16:51:45.710Z,21.73
2018-12-12T16:54:14.590Z,25.63
2018-12-12T16:56:43.453Z,22.90
2018-12-12T16:59:12.233Z,19.93
2018-12-12T17:01:41.054Z,20.37
2018-12-12T17:04:09.942Z,20.80
2018-12-12T17:06:38.791Z,21.73
2018-12-12T17:09:08.131Z,24.20
2018-12-12T17:11:36.945Z,22.13
2018-12-12T17:14:05.753Z,20.67
2018-12-12T17:16:34.570Z,23.50
2018-12-12T17:19:03.516Z,21.37
2018-12-12T17:21:32.457Z,22.93
2018-12-12T17:24:01.266Z,22.17
2018-12-12T17:26:30.099Z,22.23
2018-12-12T17:28:59.002Z,22.03
2018-12-12T17:31:27.882Z,19.83
2018-12-12T17:33:56.724Z,21.20
2018-12-12T17:36:25.818Z,19.93
2018-12-12T17:38:54.690Z,21.43
2018-12-12T17:41:23.501Z,22.23
2018-12-12T17:43:52.504Z,21.97
2018-12-12T17:46:21.318Z,20.87
2018-12-12T17:48:50.245Z,20.57
2018-12-12T17:51:19.129Z,20.17
2018-12-12T17:53:47.954Z,18.73
2018-12-12T17:56:16.866Z,19.67
2018-12-12T17:58:45.672Z,19.23
2018-12-12T18:01:14.857Z,19.70
2018-12-12T18:03:43.678Z,18.83
2018-12-12T18:06:12.534Z,18.67
2018-12-12T18:08:41.461Z,19.70
2018-12-12T18:11:10.308Z,20.77
2018-12-12T18:13:39.202Z,19.17
2018-12-12T18:16:08.093Z,18.20
2018-12-12T18:18:36.916Z,20.03
2018-12-12T18:21:06.703Z,20.20
2018-12-12T18:23:35.666Z,21.13
2018-12-12T18:26:04.673Z,20.90
2018-12-12T18:28:33.544Z,19.93
2018-12-12T18:31:02.377Z,20.03
2018-12-12T18:33:31.314Z,19.70
2018-12-12T18:36:00.200Z,20.43
2018-12-12T18:38:29.026Z,22.37
2018-12-12T18:40:57.910Z,19.97
2018-12-12T18:43:26.885Z,24.17
2018-12-12T18:45:55.807Z,20.67
2018-12-12T18:48:24.619Z,19.67
2018-12-12T18:50:53.474Z,19.20
2018-12-12T18:53:22.383Z,19.73
2018-12-12T18:55:51.274Z,20.37
2018-12-12T18:58:20.161Z,18.10
2018-12-12T19:00:48.945Z,18.13
2018-12-12T19:03:17.822Z,18.67
2018-12-12T19:05:46.701Z,21.70
2018-12-12T19:08:15.538Z,22.37
2018-12-12T19:10:44.417Z,21.97
2018-12-12T19:13:13.305Z,20.43
2018-12-12T19:15:42.189Z,20.60
2018-12-12T19:18:11.226Z,19.10
2018-12-12T19:20:40.050Z,21.07
2018-12-12T19:23:08.900Z,25.33
2018-12-12T19:25:37.766Z,24.63
2018-12-12T19:28:06.654Z,25.17
2018-12-12T19:30:35.651Z,21.53
2018-12-12T19:33:04.661Z,20.87
2018-12-12T19:35:34.894Z,19.00
2018-12-12T19:38:04.704Z,17.77
2018-12-12T19:40:33.552Z,17.97
2018-12-12T19:43:02.382Z,18.47
2018-12-12T19:45:31.180Z,18.67
2018-12-12T19:48:00.157Z,17.00
2018-12-12T19:50:28.965Z,15.20
2018-12-12T19:52:58.082Z,14.93
2018-12-12T19:55:26.941Z,15.03
2018-12-12T19:57:56.223Z,10.03
2018-12-12T20:00:25.155Z,8.53
2018-12-12T20:02:53.967Z,8.30
2018-12-12T20:05:22.761Z,8.37
2018-12-12T20:07:51.718Z,7.23
2018-12-12T20:10:20.567Z,7.30
2018-12-12T20:12:49.465Z,6.80
2018-12-12T20:15:23.945Z,7.17
2018-12-12T20:17:52.846Z,10.07
2018-12-12T20:20:21.795Z,27.27
2018-12-12T20:22:50.736Z,16.27
2018-12-12T20:25:19.567Z,18.03
2018-12-12T20:27:48.438Z,18.47
2018-12-12T20:30:17.262Z,17.13
2018-12-12T20:32:46.214Z,16.17
2018-12-12T20:35:15.115Z,15.23
2018-12-12T20:37:44.052Z,18.63
2018-12-12T20:40:13.045Z,19.67
2018-12-12T20:42:41.858Z,20.37
2018-12-12T20:45:10.749Z,17.33
2018-12-12T20:47:39.662Z,17.90
2018-12-12T20:50:08.803Z,14.40
2018-12-12T20:52:37.719Z,15.17
2018-12-12T20:55:06.857Z,15.57
2018-12-12T20:57:36.242Z,11.27
2018-12-12T21:00:05.591Z,13.20
2018-12-12T21:02:34.386Z,12.90
2018-12-12T21:05:03.346Z,17.23
2018-12-12T21:07:32.147Z,14.30
2018-12-12T21:10:01.065Z,13.90
2018-12-12T21:12:29.989Z,10.90
2018-12-12T21:14:58.821Z,6.40
2018-12-12T21:17:27.731Z,9.20
2018-12-12T21:19:56.677Z,7.40
2018-12-12T21:22:25.511Z,6.43
2018-12-12T21:24:54.607Z,5.40
2018-12-12T21:27:23.655Z,5.43
2018-12-12T21:29:52.614Z,4.97
2018-12-12T21:32:21.540Z,6.17
2018-12-12T21:34:50.481Z,9.47
2018-12-12T21:37:19.325Z,8.07
2018-12-12T21:39:48.299Z,6.17
2018-12-12T21:42:17.311Z,5.53
2018-12-12T21:44:46.466Z,5.43
2018-12-12T21:47:16.314Z,5.03
2018-12-12T21:49:45.231Z,5.73
2018-12-12T21:52:14.136Z,5.97
2018-12-12T21:54:43.366Z,5.90
2018-12-12T21:57:12.657Z,5.77
2018-12-12T21:59:41.534Z,6.17
2018-12-12T22:02:10.451Z,6.40
2018-12-12T22:04:39.905Z,6.97
2018-12-12T22:07:09.000Z,7.50
2018-12-12T22:09:37.921Z,7.20
2018-12-12T22:12:06.972Z,6.93
2018-12-12T22:14:35.848Z,7.60
2018-12-12T22:17:04.753Z,10.53
2018-12-12T22:19:33.628Z,9.87
2018-12-12T22:22:02.686Z,9.23
2018-12-12T22:24:31.591Z,8.73
2018-12-12T22:27:00.726Z,9.70
2018-12-12T22:29:30.339Z,7.93
2018-12-12T22:31:59.282Z,8.17
2018-12-12T22:34:28.267Z,8.10
2018-12-12T22:36:57.128Z,6.63
2018-12-12T22:39:26.145Z,6.23
2018-12-12T22:41:54.986Z,6.30
2018-12-12T22:44:24.050Z,9.00
2018-12-12T22:46:52.883Z,8.90
2018-12-12T22:49:21.793Z,9.17
2018-12-12T22:51:51.182Z,8.93
2018-12-12T22:54:20.288Z,9.47
2018-12-12T22:56:49.134Z,8.70
2018-12-12T22:59:17.931Z,7.13
2018-12-12T23:01:47.006Z,8.80
2018-12-12T23:04:16.289Z,8.13
2018-12-12T23:06:45.214Z,7.27
2018-12-12T23:09:14.234Z,8.70
2018-12-12T23:11:43.214Z,7.80
2018-12-12T23:14:12.217Z,8.30
2018-12-12T23:16:41.156Z,7.40
2018-12-12T23:19:10.119Z,6.40
2018-12-12T23:21:39.139Z,6.33
2018-12-12T23:24:08.151Z,7.40
2018-12-12T23:26:37.084Z,7.00
2018-12-12T23:29:05.960Z,6.90
2018-12-12T23:31:34.889Z,7.97
2018-12-12T23:34:04.027Z,7.73
2018-12-12T23:36:32.926Z,8.03
2018-12-12T23:39:01.760Z,9.03
2018-12-12T23:41:30.710Z,7.70
2018-12-12T23:43:59.489Z,7.40
2018-12-12T23:46:28.422Z,6.87
2018-12-12T23:48:57.467Z,7.53
2018-12-12T23:51:26.290Z,7.97
2018-12-12T23:53:55.253Z,8.20
2018-12-12T23:56:24.108Z,6.80
2018-12-12T23:58:53.031Z,6.60
